createdAt,value
2018-12-24T00:02:37.629Z,10.83
2018-12-24T00:05:47.633Z,10.91
2018-12-24T00:08:31.588Z,10.87
2018-12-24T00:11:22.574Z,10.88
2018-12-24T00:14:06.542Z,10.98
2018-12-24T00:16:50.145Z,10.93
2018-12-24T00:19:41.110Z,10.95
2018-12-24T00:22:24.299Z,10.95
2018-12-24T00:25:15.260Z,11.02
2018-12-24T00:27:58.703Z,11.07
2018-12-24T00:30:50.652Z,11.09
2018-12-24T00:33:32.754Z,11.10
2018-12-24T00:36:23.778Z,11.08
2018-12-24T00:39:07.292Z,11.12
2018-12-24T00:41:58.263Z,11.10
2018-12-24T00:44:49.256Z,11.08
2018-12-24T00:47:31.240Z,11.10
2018-12-24T00:50:22.198Z,11.07
2018-12-24T00:53:05.839Z,11.08
2018-12-24T00:55:56.799Z,11.00
2018-12-24T00:58:39.954Z,11.09
2018-12-24T01:01:30.922Z,11.14
2018-12-24T01:04:13.973Z,11.11
2018-12-24T01:07:05.002Z,11.14
2018-12-24T01:09:48.516Z,11.13
2018-12-24T01:12:39.449Z,11.12
2018-12-24T01:15:22.568Z,11.11
2018-12-24T01:18:13.563Z,11.18
2018-12-24T01:20:57.323Z,11.17
2018-12-24T01:23:40.604Z,11.16
2018-12-24T01:26:31.559Z,11.16
2018-12-24T01:29:15.046Z,11.13
2018-12-24T01:32:06.075Z,11.17
2018-12-24T01:34:50.107Z,11.15
2018-12-24T01:37:41.084Z,11.10
2018-12-24T01:40:24.646Z,11.11
2018-12-24T01:43:15.540Z,11.14
2018-12-24T01:45:58.931Z,11.10
2018-12-24T01:48:49.900Z,11.01
2018-12-24T01:51:33.283Z,11.04
2018-12-24T01:54:16.613Z,10.99
2018-12-24T01:57:07.570Z,11.09
2018-12-24T01:59:49.507Z,11.00
2018-12-24T02:02:41.350Z,11.00
2018-12-24T02:05:24.708Z,10.99
2018-12-24T02:08:15.628Z,10.99
2018-12-24T02:10:57.694Z,10.95
2018-12-24T02:13:48.651Z,10.92
2018-12-24T02:16:33.415Z,10.88
2018-12-24T02:19:24.352Z,10.91
2018-12-24T02:22:12.743Z,10.93
2018-12-24T02:25:00.479Z,11.04
2018-12-24T02:27:43.815Z,10.99
2018-12-24T02:30:27.135Z,11.02
2018-12-24T02:33:18.075Z,11.01
2018-12-24T02:36:01.363Z,11.05
2018-12-24T02:38:52.410Z,11.09
2018-12-24T02:41:36.265Z,11.12
2018-12-24T02:47:50.422Z,10.98
2018-12-24T02:50:32.389Z,10.99
2018-12-24T02:53:15.450Z,10.99
2018-12-24T02:56:06.487Z,10.97
2018-12-24T02:58:49.518Z,10.94
2018-12-24T03:01:40.465Z,10.96
2018-12-24T03:04:23.588Z,10.93
2018-12-24T03:10:22.530Z,10.84
2018-12-24T03:13:13.491Z,10.72
2018-12-24T03:15:55.524Z,10.65
2018-12-24T03:18:46.540Z,10.63
2018-12-24T03:21:30.032Z,10.57
2018-12-24T03:24:21.028Z,10.47
2018-12-24T03:27:04.313Z,10.46
2018-12-24T03:29:55.275Z,10.40
2018-12-24T03:32:38.978Z,10.38
2018-12-24T03:35:29.917Z,10.46
2018-12-24T03:38:13.528Z,10.40
2018-12-24T03:41:04.481Z,10.36
2018-12-24T03:43:47.646Z,10.34
2018-12-24T03:46:57.657Z,10.38
2018-12-24T03:49:41.267Z,10.41
2018-12-24T03:52:24.388Z,10.45
2018-12-24T03:55:07.881Z,10.24
2018-12-24T03:57:58.916Z,6.91
2018-12-24T04:00:42.089Z,5.76
2018-12-24T04:03:33.057Z,5.96
2018-12-24T04:06:15.122Z,6.13
2018-12-24T04:09:07.553Z,6.20
2018-12-24T04:11:50.688Z,6.36
2018-12-24T04:14:41.665Z,6.37
2018-12-24T04:17:25.398Z,6.45
2018-12-24T04:20:16.375Z,6.56
2018-12-24T04:23:00.430Z,6.43
2018-12-24T04:25:51.371Z,6.29
2018-12-24T04:28:34.779Z,6.50
2018-12-24T04:31:25.737Z,6.43
2018-12-24T04:34:09.334Z,6.47
2018-12-24T04:37:20.839Z,6.22
2018-12-24T04:40:04.213Z,6.41
2018-12-24T04:42:55.283Z,6.39
2018-12-24T04:45:37.248Z,6.36
2018-12-24T04:48:28.190Z,6.68
2018-12-24T04:51:11.597Z,6.52
2018-12-24T04:53:55.761Z,6.51
2018-12-24T04:56:46.646Z,6.46
2018-12-24T04:59:30.230Z,6.33
2018-12-24T05:02:40.223Z,6.46
2018-12-24T05:05:23.316Z,6.75
2018-12-24T05:08:14.236Z,6.36
2018-12-24T05:10:57.853Z,6.22
2018-12-24T05:13:48.792Z,6.19
2018-12-24T05:16:32.596Z,6.22
2018-12-24T05:19:23.577Z,6.19
2018-12-24T05:22:05.445Z,6.12
2018-12-24T05:24:48.660Z,6.03
2018-12-24T05:27:39.613Z,6.09
2018-12-24T05:30:21.629Z,6.05
2018-12-24T05:33:31.590Z,6.07
2018-12-24T05:36:15.071Z,5.86
2018-12-24T05:42:29.655Z,5.45
2018-12-24T05:45:13.068Z,5.47
2018-12-24T05:48:03.940Z,5.51
2018-12-24T05:50:47.607Z,5.44
2018-12-24T05:53:38.558Z,5.46
2018-12-24T05:56:22.189Z,5.21
2018-12-24T05:59:13.129Z,5.34
2018-12-24T06:01:57.019Z,5.23
2018-12-24T06:04:47.965Z,5.12
2018-12-24T06:07:31.859Z,5.25
2018-12-24T06:10:22.801Z,5.32
2018-12-24T06:13:06.559Z,5.02
2018-12-24T06:15:57.521Z,5.22
2018-12-24T06:18:40.544Z,5.03
2018-12-24T06:21:23.887Z,5.25
2018-12-24T06:24:07.348Z,5.02
2018-12-24T06:26:50.861Z,5.02
2018-12-24T06:29:41.815Z,5.01
2018-12-24T06:32:25.556Z,5.05
2018-12-24T06:35:16.436Z,4.75
2018-12-24T06:38:00.039Z,4.81
2018-12-24T06:40:50.977Z,4.75
2018-12-24T06:43:34.743Z,4.81
2018-12-24T06:46:25.784Z,4.88
2018-12-24T06:49:09.099Z,4.50
2018-12-24T06:51:52.159Z,4.77
2018-12-24T06:54:43.057Z,4.84
2018-12-24T06:57:53.085Z,4.65
2018-12-24T07:00:36.852Z,4.49
2018-12-24T07:03:46.896Z,4.63
2018-12-24T07:06:30.470Z,4.97
2018-12-24T07:09:21.416Z,4.64
2018-12-24T07:12:03.342Z,4.70
2018-12-24T07:14:54.351Z,4.75
2018-12-24T07:17:36.465Z,4.48
2018-12-24T07:20:27.461Z,4.51
2018-12-24T07:23:11.658Z,4.65
2018-12-24T07:26:02.623Z,4.52
2018-12-24T07:28:46.347Z,4.59
2018-12-24T07:31:37.264Z,4.52
2018-12-24T07:34:20.754Z,4.81
2018-12-24T07:37:11.695Z,4.80
2018-12-24T07:39:55.501Z,4.47
2018-12-24T07:42:46.453Z,4.48
2018-12-24T07:45:29.491Z,4.42
2018-12-24T07:48:13.345Z,4.67
2018-12-24T07:51:04.304Z,4.66
2018-12-24T07:53:47.493Z,4.60
2018-12-24T07:56:31.341Z,4.58
2018-12-24T07:59:22.330Z,4.58
2018-12-24T08:02:06.307Z,4.54
2018-12-24T08:04:57.234Z,4.40
2018-12-24T08:07:40.681Z,4.56
2018-12-24T08:10:31.668Z,4.41
2018-12-24T08:13:15.074Z,4.38
2018-12-24T08:16:06.045Z,4.66
2018-12-24T08:18:49.559Z,4.64
2018-12-24T08:21:59.583Z,4.51
2018-12-24T08:24:42.758Z,4.60
2018-12-24T08:27:33.737Z,4.60
2018-12-24T08:30:16.952Z,4.53
2018-12-24T08:33:07.919Z,4.77
2018-12-24T08:35:53.017Z,4.87
2018-12-24T08:38:43.977Z,4.88
2018-12-24T08:41:27.448Z,4.88
2018-12-24T08:44:18.451Z,4.92
2018-12-24T08:47:00.375Z,4.84
2018-12-24T08:49:43.641Z,4.75
2018-12-24T08:52:34.598Z,4.83
2018-12-24T08:55:18.256Z,4.79
2018-12-24T08:58:09.296Z,4.72
2018-12-24T09:00:52.708Z,4.69
2018-12-24T09:04:02.714Z,4.70
2018-12-24T09:06:45.875Z,4.64
2018-12-24T09:09:55.923Z,4.67
2018-12-24T09:12:39.460Z,4.45
2018-12-24T09:15:22.612Z,4.54
2018-12-24T09:21:39.845Z,4.51
2018-12-24T09:24:23.377Z,4.40
2018-12-24T09:27:07.285Z,4.54
2018-12-24T09:30:17.321Z,4.40
2018-12-24T09:33:00.361Z,4.39
2018-12-24T09:35:44.268Z,4.50
2018-12-24T09:38:35.251Z,4.37
2018-12-24T09:41:18.443Z,4.45
2018-12-24T09:47:32.701Z,4.47
2018-12-24T09:50:15.847Z,4.57
2018-12-24T09:52:59.719Z,4.48
2018-12-24T09:55:41.714Z,4.33
2018-12-24T09:58:51.415Z,4.62
2018-12-24T10:01:34.842Z,4.72
2018-12-24T10:04:31.500Z,4.58
2018-12-24T10:07:26.286Z,4.72
2018-12-24T10:09:58.233Z,4.87
2018-12-24T10:12:30.248Z,4.81
2018-12-24T10:15:08.036Z,4.98
2018-12-24T10:17:35.816Z,4.84
2018-12-24T10:23:52.916Z,4.99
2018-12-24T10:26:36.384Z,5.12
2018-12-24T10:29:20.239Z,4.93
2018-12-24T10:32:11.267Z,4.96
2018-12-24T10:34:54.841Z,4.89
2018-12-24T10:37:38.471Z,5.05
2018-12-24T10:43:52.282Z,5.06
2018-12-24T10:46:34.366Z,5.25
2018-12-24T10:49:17.542Z,5.09
2018-12-24T10:52:08.519Z,5.26
2018-12-24T10:54:51.757Z,5.22
2018-12-24T10:57:42.819Z,4.97
2018-12-24T11:00:26.701Z,5.10
2018-12-24T11:03:17.744Z,5.03
2018-12-24T11:06:00.828Z,5.00
2018-12-24T11:08:51.894Z,5.23
2018-12-24T11:11:35.595Z,5.36
2018-12-24T11:14:26.609Z,5.15
2018-12-24T11:17:29.038Z,5.05
2018-12-24T11:20:20.986Z,4.98
2018-12-24T11:23:04.829Z,4.81
2018-12-24T11:25:55.835Z,5.10
2018-12-24T11:28:39.077Z,4.87
2018-12-24T11:31:30.041Z,4.70
2018-12-24T11:34:13.047Z,4.94
2018-12-24T11:37:04.007Z,5.18
2018-12-24T11:39:47.725Z,4.97
2018-12-24T11:49:02.593Z,5.18
2018-12-24T11:51:45.867Z,5.35
2018-12-24T11:54:36.892Z,5.22
2018-12-24T11:57:20.767Z,5.37
2018-12-24T12:00:11.743Z,5.38
2018-12-24T12:02:56.697Z,5.26
2018-12-24T12:05:47.688Z,5.33
2018-12-24T12:08:33.326Z,5.30
2018-12-24T12:11:43.338Z,5.12
2018-12-24T12:14:26.569Z,5.20
2018-12-24T12:17:48.402Z,5.37
2018-12-24T12:20:31.783Z,5.47
2018-12-24T12:23:22.344Z,5.24
2018-12-24T12:26:05.926Z,5.29
2018-12-24T12:28:56.483Z,5.12
2018-12-24T12:31:39.856Z,5.31
2018-12-24T12:34:30.393Z,5.33
2018-12-24T12:37:13.532Z,5.22
2018-12-24T12:40:04.115Z,5.24
2018-12-24T12:42:45.769Z,5.27
2018-12-24T12:45:36.326Z,5.29
2018-12-24T12:48:21.360Z,5.41
2018-12-24T12:51:04.246Z,5.41
2018-12-24T12:57:10.406Z,5.45
2018-12-24T12:59:53.631Z,5.41
2018-12-24T13:02:35.179Z,5.36
2018-12-24T13:05:25.754Z,5.44
2018-12-24T13:08:07.381Z,5.56
2018-12-24T13:10:57.898Z,5.57
2018-12-24T13:13:40.962Z,5.59
2018-12-24T13:19:33.019Z,5.40
2018-12-24T13:22:16.259Z,5.44
2018-12-24T13:25:06.809Z,5.19
2018-12-24T13:27:50.342Z,5.35
2018-12-24T13:30:40.916Z,5.27
2018-12-24T13:33:22.393Z,5.23
2018-12-24T13:36:13.807Z,5.42
2018-12-24T13:38:56.832Z,5.39
2018-12-24T13:41:47.351Z,5.46
2018-12-24T13:44:28.780Z,5.34
2018-12-24T13:50:21.155Z,5.33
2018-12-24T13:53:04.632Z,5.46
2018-12-24T13:55:55.153Z,5.52
2018-12-24T13:58:37.888Z,5.55
2018-12-24T14:01:28.458Z,5.63
2018-12-24T14:04:11.670Z,5.28
2018-12-24T14:10:29.048Z,5.15
2018-12-24T14:13:11.806Z,5.27
2018-12-24T14:16:02.426Z,5.36
2018-12-24T14:18:45.179Z,5.41
2018-12-24T14:21:35.706Z,5.42
2018-12-24T14:24:19.206Z,5.29
2018-12-24T14:45:39.104Z,5.35
2018-12-24T14:48:22.311Z,5.03
2018-12-24T14:51:12.822Z,5.10
2018-12-24T14:53:56.232Z,5.01
2018-12-24T14:59:40.638Z,5.09
2018-12-24T15:02:24.139Z,5.09
2018-12-24T15:08:16.870Z,4.94
2018-12-24T15:11:00.605Z,4.93
2018-12-24T15:17:17.769Z,4.99
2018-12-24T15:19:59.292Z,4.16
2018-12-24T15:22:42.812Z,4.15
2018-12-24T15:25:25.802Z,4.31
2018-12-24T15:28:16.356Z,4.24
2018-12-24T15:30:59.769Z,4.03
2018-12-24T15:43:15.051Z,4.13
2018-12-24T15:45:58.405Z,4.12
2018-12-24T15:52:13.705Z,4.11
2018-12-24T15:54:58.076Z,4.11
2018-12-24T15:57:41.671Z,4.08
2018-12-24T16:00:23.262Z,3.94
2018-12-24T16:03:36.773Z,4.01
2018-12-24T16:06:36.723Z,4.02
2018-12-24T16:18:52.982Z,3.94
2018-12-24T16:21:36.417Z,3.90
2018-12-24T16:27:53.530Z,3.96
2018-12-24T16:30:36.287Z,4.02
2018-12-24T16:33:19.696Z,3.96
2018-12-24T16:36:10.264Z,4.06
2018-12-24T16:38:53.652Z,3.90
2018-12-24T16:45:06.862Z,3.98
2018-12-24T16:47:50.280Z,3.97
2018-12-24T16:50:40.803Z,3.90
2018-12-24T16:53:24.125Z,3.92
2018-12-24T17:05:39.192Z,3.93
2018-12-24T17:08:22.253Z,4.05
2018-12-24T17:11:12.804Z,4.24
2018-12-24T17:13:55.937Z,4.21
2018-12-24T17:16:46.556Z,4.20
2018-12-24T17:19:29.415Z,4.06
2018-12-24T17:25:23.764Z,4.14
2018-12-24T17:28:14.387Z,4.10
2018-12-24T17:30:57.372Z,3.99
2018-12-24T17:33:47.905Z,3.96
2018-12-24T17:36:29.539Z,3.90
2018-12-24T17:39:20.055Z,3.95
2018-12-24T17:42:01.607Z,3.96
2018-12-24T17:48:14.881Z,3.84
2018-12-24T17:50:56.494Z,3.93
2018-12-24T17:53:39.947Z,3.78
2018-12-24T17:56:30.466Z,4.00
2018-12-24T17:59:13.730Z,3.96
2018-12-24T18:01:57.329Z,4.10
2018-12-24T18:04:47.944Z,4.04
2018-12-24T18:07:31.189Z,3.98
2018-12-24T18:10:21.742Z,4.02
2018-12-24T18:13:04.974Z,4.05
2018-12-24T18:15:55.555Z,4.02
2018-12-24T18:18:39.045Z,4.05
2018-12-24T18:21:29.612Z,4.03
2018-12-24T18:24:12.927Z,3.96
2018-12-24T18:30:06.134Z,3.96
2018-12-24T18:32:47.657Z,3.86
2018-12-24T18:38:39.582Z,3.91
2018-12-24T18:41:21.264Z,3.86
2018-12-24T18:44:11.802Z,3.65
2018-12-24T18:46:55.230Z,3.88
2018-12-24T18:49:45.752Z,3.82
2018-12-24T18:52:29.260Z,3.81
2018-12-24T18:55:20.348Z,3.85
2018-12-24T18:58:13.606Z,3.72
2018-12-24T19:00:57.052Z,3.79
2018-12-24T19:03:39.880Z,3.84
2018-12-24T19:06:30.391Z,3.93
2018-12-24T19:09:12.003Z,3.87
2018-12-24T19:12:02.615Z,3.94
2018-12-24T19:14:46.090Z,4.00
2018-12-24T19:17:41.404Z,4.04
2018-12-24T19:20:30.519Z,3.83
2018-12-24T19:23:21.124Z,3.72
2018-12-24T19:26:04.399Z,3.77
2018-12-24T19:28:54.941Z,3.77
2018-12-24T19:31:57.255Z,3.76
2018-12-24T19:34:48.126Z,3.92
2018-12-24T19:37:31.723Z,3.98
2018-12-24T19:40:22.143Z,4.05
2018-12-24T19:43:07.257Z,4.52
2018-12-24T19:45:57.829Z,4.00
2018-12-24T19:48:41.232Z,3.74
2018-12-24T19:51:31.784Z,3.75
2018-12-24T19:54:13.411Z,3.54
2018-12-24T19:57:03.971Z,3.69
2018-12-24T19:59:45.583Z,3.70
2018-12-24T20:02:36.100Z,3.72
2018-12-24T20:05:18.884Z,3.70
2018-12-24T20:08:09.469Z,3.84
2018-12-24T20:10:53.006Z,3.79
2018-12-24T20:13:43.527Z,3.54
2018-12-24T20:16:27.016Z,3.66
2018-12-24T20:19:17.544Z,3.71
2018-12-24T20:22:01.000Z,3.80
2018-12-24T20:24:51.603Z,3.78
2018-12-24T20:27:35.034Z,3.85
2018-12-24T20:33:52.138Z,3.66
2018-12-24T20:36:35.627Z,3.66
2018-12-24T20:39:18.410Z,3.83
2018-12-24T20:42:09.027Z,3.97
2018-12-24T20:44:52.278Z,3.90
2018-12-24T20:47:42.800Z,3.68
2018-12-24T20:50:26.377Z,3.86
2018-12-24T20:53:17.195Z,3.86
2018-12-24T20:55:59.866Z,3.66
2018-12-24T20:58:50.371Z,3.77
2018-12-24T21:01:33.821Z,3.82
2018-12-24T21:04:24.402Z,3.84
2018-12-24T21:07:07.756Z,3.77
2018-12-24T21:09:59.363Z,3.87
2018-12-24T21:12:42.709Z,3.85
2018-12-24T21:15:33.226Z,3.84
2018-12-24T21:18:15.232Z,3.64
2018-12-24T21:24:28.792Z,3.76
2018-12-24T21:27:12.189Z,3.83
2018-12-24T21:29:56.640Z,3.85
2018-12-24T21:32:47.173Z,3.83
2018-12-24T21:35:30.376Z,3.82
2018-12-24T21:38:22.373Z,3.89
2018-12-24T21:41:05.870Z,3.99
2018-12-24T21:43:56.415Z,4.04
2018-12-24T21:46:39.697Z,3.92
2018-12-24T21:49:31.191Z,3.90
2018-12-24T21:52:14.523Z,3.81
2018-12-24T21:55:05.200Z,3.99
2018-12-24T21:57:48.288Z,3.79
2018-12-24T22:00:31.339Z,3.69
2018-12-24T22:03:22.120Z,3.79
2018-12-24T22:06:05.615Z,3.91
2018-12-24T22:08:56.207Z,3.65
2018-12-24T22:11:39.126Z,3.79
2018-12-24T22:14:29.684Z,3.75
2018-12-24T22:17:12.558Z,3.74
2018-12-24T22:20:03.150Z,3.75
2018-12-24T22:22:44.729Z,3.57
2018-12-24T22:25:35.366Z,3.63
2018-12-24T22:28:18.656Z,3.65
2018-12-24T22:31:01.986Z,3.62
2018-12-24T22:33:52.524Z,3.67
2018-12-24T22:36:35.680Z,3.65
2018-12-24T22:39:26.210Z,3.71
2018-12-24T22:42:09.274Z,3.65
2018-12-24T22:44:59.793Z,3.61
2018-12-24T22:47:42.684Z,3.48
2018-12-24T22:50:33.215Z,3.53
2018-12-24T22:53:16.314Z,3.48
2018-12-24T22:56:06.867Z,3.46
2018-12-24T22:58:49.931Z,3.47
2018-12-24T23:01:33.184Z,3.50
2018-12-24T23:04:23.747Z,3.61
2018-12-24T23:07:06.772Z,3.50
2018-12-24T23:09:57.425Z,3.78
2018-12-24T23:12:40.497Z,3.59
2018-12-24T23:15:31.050Z,3.51
2018-12-24T23:18:14.368Z,3.52
2018-12-24T23:21:04.936Z,3.52
2018-12-24T23:23:48.484Z,3.59
2018-12-24T23:26:39.014Z,3.49
2018-12-24T23:29:22.076Z,3.73
2018-12-24T23:32:06.919Z,3.59
2018-12-24T23:34:57.435Z,3.59
2018-12-24T23:37:41.004Z,3.56
2018-12-24T23:40:32.044Z,3.28
2018-12-24T23:43:22.051Z,3.29
2018-12-24T23:46:12.601Z,3.35
2018-12-24T23:48:57.804Z,3.43
2018-12-24T23:51:48.507Z,3.48
2018-12-24T23:54:31.796Z,3.53
2018-12-24T23:57:22.355Z,3.39
